Предлагаем Вашему вниманию английскую версию страницы: AUTOTAF.ME 22717 - aviation weather forecast Suoyarvi

AUTOTAF 22717 - авиапрогноз Суоярви

Сегодня рассвет 04:20 UTC, восход солнца 05:08 UTC,
местный полдень 09:34 UTC, заход солнца 14:00 UTC,
наступление темноты 14:47 UTC.

Краткий прогноз 22717 на 9 часов

AUTOTAF.ME 22717 260800Z 2609/2618 18005G14MPS 3000 BR OVC005    
  BECMG 2610/2612 2000  
  FM261500 19006G14MPS 3000 BR OVC003 
  FM261800 19004MPS 2000 BR OVC002

Детальный прогноз 22717 на 24 часа

AUTOTAF.ME 22717 260800Z 2609/2709 18005G14MPS 3000 BR OVC005 TX08/2706Z TN04/2609Z  
  BECMG 2610/2612 2000  
  FM261500 19006G14MPS 3000 BR OVC003 
  FM261800 19004MPS 2000 BR OVC002 
  FM262100 20004MPS 3000 BR OVC001 
  BECMG 2622/2700 OVC002  
  FM270300 18004MPS 3000 -RA BR OVC003 
  BECMG 2704/2706 OVC001  
  FM270900 19005G13MPS 3000 -RA BR OVC003

Подробный табличный прогноз

Время (UTC) miniAUTOTAF на 3 ч WX FZLVL
M AGL
ICE TURB Т
(°С)
Тd
(°С)
f(%) QNH
(гПа)
WIND/T
06 16004MPS 5000 BR BKN012 BR 1950 MOD FL90/FL100 MOD SFC/FL30 2 -0 87 1014 ...
09 18005G14MPS 3000 BR OVC005 BR 1950 FBL FL90/FL100 4 3 94 1014 ...
12 19005G12MPS 2000 BR OVC004 BR 1950 FBL FL90/FL100 7 6 95 1014 ...
15 19006G14MPS 3000 BR OVC003 BR 2550 7 6 94 1013 ...
18 19004MPS 2000 BR OVC002 BR 2550 MOD FL170/FL180 7 6 96 1013 ...
21 20004MPS 3000 BR OVC001 BR 2400 MOD FL170/FL180 7 6 96 1013 ...
27.10.2020
00 18004MPS 3000 BR OVC002 BR 2100 FBL FL120/FL170 7 6 95 1013 ...
03 18004MPS 3000 -RA BR OVC003 -RA BR 1800 MOD FL70/FL170 7 7 97 1012 ...
06 19005G12MPS 3000 -RA BR OVC001 -RA BR 1950 MOD FL90/FL100 8 8 96 1011 ...
09 19005G13MPS 3000 -RA BR OVC003 -RA BR 2100 MOD FL90/FL110 8 7 93 1011 ...
12 19005G13MPS 5000 BR OVC006 BR 2100 FBL FL90/FL110 8 7 91 1010 ...
15 19005G13MPS 5000 -RA BR OVC007 -RA BR 1800 MOD FL90/FL100 9 7 91 1009 ...
18 20005G13MPS 3000 -RA BR OVC005 -RA BR 1950 MOD FL90/FL110 9 8 93 1008 ...
21 20004MPS 3000 -RA BR OVC003 -RA BR 1950 MOD FL70/FL110 9 8 94 1008 ...
28.10.2020
00 21004MPS 3000 -RA BR OVC001 -RA BR 1800 MOD FL90/FL110 9 9 96 1008 ...
03 21004MPS 5000 -SHRA BR BKN006 OVC010CB -SHRA BR 1500 FBL FL70/FL190 9 8 95 1006 ...


Широта 62.1°, долгота 32.4°, высота 156 м абс.
Средняя высота рельефа местности 137 м абс.
Прогнозы обновляются четыре раза в сутки: в 02, 08, 14, 20 ч всемирного времени.


Выбрать прогноз по другой модели Суоярви
Онлайн-сводка гроз по Суоярви (для РФ и ближнего зарубежья)
Карта фактических гроз в окрестностях Суоярви
Динамические прогностические карты (ventusky.com)
Прогностическая карта высоты нижней границы облаков по Суоярви (windy.com)
Выбрать другой город

Прогноз предназначен для личного научно-познавательного использования частными лицами
и не предназначен для принятия важных решений и выполнения реальных полётов воздушных судов

При копировании или ином использовании любых материалов данного сайта ссылка на © meteocenter.asia обязательна.

1.19/1.7